Time;durP1;ratioP1;P1;durP2;ratioP2;P2;SDS_P1;SDS_P2;PMS_P1;PMS_P2;Temp;Humidity;BMP_temperature;BMP_pressure;BME280_temperature;BME280_humidity;BME280_pressure;Samples;Min_cycle;Max_cycle;Signal;HPM_P1;HPM_P2
2022/04/01 00:00:20;;;;;;;4.53;2.22;;;;;;;-142.75;100.00;78035.09;5014010;28;20475;-67
2022/04/01 00:02:47;;;;;;;4.33;1.87;;;;;;;-142.75;100.00;78033.13;5013964;28;20475;-66
2022/04/01 00:05:12;;;;;;;3.63;2.40;;;;;;;-142.75;100.00;78035.09;5031636;28;20026;-67
2022/04/01 00:07:40;;;;;;;3.97;2.30;;;;;;;-142.75;100.00;78046.91;5031663;28;20032;-67
2022/04/01 00:10:06;;;;;;;4.20;2.30;;;;;;;-142.75;100.00;78042.97;5031272;28;20029;-67
2022/04/01 00:12:31;;;;;;;3.57;2.13;;;;;;;-142.75;100.00;78054.81;5031492;28;20503;-67
2022/04/01 00:14:57;;;;;;;3.30;2.20;;;;;;;-142.75;100.00;78056.78;5031448;28;20041;-67
2022/04/01 00:17:22;;;;;;;4.50;2.72;;;;;;;-142.75;100.00;78050.84;5013726;28;20549;-67
2022/04/01 00:19:47;;;;;;;5.78;3.00;;;;;;;-142.75;100.00;78058.72;5031267;28;20116;-67
2022/04/01 00:22:13;;;;;;;3.63;2.50;;;;;;;-142.75;100.00;78058.72;5011093;28;20029;-68
2022/04/01 00:24:38;;;;;;;4.85;2.58;;;;;;;-142.75;100.00;78062.69;5011826;28;20506;-67
2022/04/01 00:27:03;;;;;;;6.13;2.92;;;;;;;-142.75;100.00;78058.72;5011435;28;20072;-68
2022/04/01 00:29:29;;;;;;;3.72;2.58;;;;;;;-142.75;100.00;78058.72;5011196;28;20026;-66
2022/04/01 00:31:59;;;;;;;5.68;2.67;;;;;;;-142.75;100.00;78054.81;5011805;28;20030;-67
2022/04/01 00:34:31;;;;;;;4.10;2.13;;;;;;;-142.75;100.00;78058.72;5011404;28;20037;-68
2022/04/01 00:36:59;;;;;;;5.57;2.90;;;;;;;-142.75;100.00;78068.59;5000877;28;20029;-67
2022/04/01 00:39:25;;;;;;;4.17;2.43;;;;;;;-142.75;100.00;78054.81;5031017;28;20100;-67
2022/04/01 00:41:52;;;;;;;4.33;2.03;;;;;;;-142.75;100.00;78062.69;5030966;28;20502;-67
2022/04/01 00:44:20;;;;;;;3.40;2.13;;;;;;;-142.75;100.00;78068.59;5013385;28;20037;-67
2022/04/01 00:46:49;;;;;;;5.67;2.60;;;;;;;-142.75;100.00;78072.53;5029765;28;20029;-67
2022/04/01 00:49:15;;;;;;;4.30;2.67;;;;;;;-142.75;100.00;78068.59;5030729;28;20029;-66
2022/04/01 00:51:43;;;;;;;3.95;2.20;;;;;;;-142.75;100.00;78084.34;5031046;28;20025;-67
2022/04/01 00:54:10;;;;;;;3.70;2.20;;;;;;;-142.75;100.00;78094.19;5031266;28;20422;-67
2022/04/01 00:56:36;;;;;;;3.77;2.37;;;;;;;-142.75;100.00;78094.19;5018483;28;20029;-67
2022/04/01 00:59:03;;;;;;;3.03;2.00;;;;;;;-142.75;100.00;78098.13;4992538;28;20019;-67
2022/04/01 01:01:31;;;;;;;3.63;2.37;;;;;;;-142.75;100.00;78109.94;5011552;28;20392;-67
2022/04/01 01:03:58;;;;;;;3.43;1.97;;;;;;;-142.75;100.00;78100.09;5010534;28;20041;-67
2022/04/01 01:06:25;;;;;;;3.27;1.90;;;;;;;-142.75;100.00;78113.88;5011769;28;20080;-66
2022/04/01 01:08:50;;;;;;;;;;;;;;;-142.75;100.00;78111.91;4997420;28;20404;-67
2022/04/01 01:11:15;;;;;;;4.37;2.17;;;;;;;-142.75;100.00;78102.06;5015604;28;19913;-67
2022/04/01 01:13:41;;;;;;;4.35;2.38;;;;;;;-142.75;100.00;78111.91;5016024;28;20026;-67
2022/04/01 01:16:07;;;;;;;3.50;2.42;;;;;;;-142.75;100.00;78109.94;5015848;28;20029;-67
2022/04/01 01:18:33;;;;;;;3.72;2.30;;;;;;;-142.75;100.00;78111.91;5015689;28;20496;-67
2022/04/01 01:20:59;;;;;;;4.03;2.45;;;;;;;-142.75;100.00;78113.88;4997929;28;20439;-67
2022/04/01 01:23:31;;;;;;;4.45;2.83;;;;;;;-142.75;100.00;78119.78;5016049;28;20026;-67
2022/04/01 01:25:57;;;;;;;2.83;1.77;;;;;;;-142.75;100.00;78113.88;5015460;28;20116;-67
2022/04/01 01:28:23;;;;;;;5.22;2.60;;;;;;;-142.75;100.00;78123.72;5015860;28;20057;-67
2022/04/01 01:30:49;;;;;;;3.57;2.47;;;;;;;-142.75;100.00;78129.63;5015907;28;20148;-67
2022/04/01 01:33:14;;;;;;;5.13;2.53;;;;;;;-142.75;100.00;78117.81;5016165;28;20504;-67
2022/04/01 01:35:41;;;;;;;2.95;2.50;;;;;;;-142.75;100.00;78129.63;5016209;28;20049;-67
2022/04/01 01:38:08;;;;;;;4.60;2.93;;;;;;;-142.75;100.00;78121.75;5021569;28;20022;-67
2022/04/01 01:40:34;;;;;;;3.33;2.10;;;;;;;-142.75;100.00;78127.66;5035815;28;20030;-67
2022/04/01 01:42:59;;;;;;;2.30;1.85;;;;;;;-142.75;100.00;78125.69;5035178;28;20035;-67
2022/04/01 01:45:26;;;;;;;3.05;1.95;;;;;;;-142.75;100.00;78131.59;5035698;28;20063;-67
2022/04/01 01:47:51;;;;;;;3.37;2.20;;;;;;;-142.75;100.00;78131.59;5035278;28;20022;-66
2022/04/01 01:55:44;;;;;;;4.27;2.33;;;;;;;-142.75;100.00;78143.41;5035593;28;20112;-66
2022/04/01 01:58:10;;;;;;;5.22;2.70;;;;;;;-142.75;100.00;78139.47;5035028;28;20628;-67
2022/04/01 02:00:36;;;;;;;3.25;2.08;;;;;;;-142.75;100.00;78149.31;5035376;28;20067;-67
2022/04/01 02:03:01;;;;;;;3.40;2.30;;;;;;;-142.75;100.00;78155.22;5035378;28;20041;-67
2022/04/01 02:05:26;;;;;;;5.18;2.80;;;;;;;-142.75;100.00;78153.25;5035263;28;20029;-67
2022/04/01 02:07:53;;;;;;;3.90;2.20;;;;;;;-142.75;100.00;78149.31;5034894;28;20017;-67
2022/04/01 02:10:18;;;;;;;4.73;2.90;;;;;;;-142.75;100.00;78159.16;5035106;28;20079;-67
2022/04/01 02:12:44;;;;;;;5.13;2.85;;;;;;;-142.75;100.00;78151.28;5035744;28;20092;-66
2022/04/01 02:15:10;;;;;;;7.57;3.25;;;;;;;-142.75;100.00;78159.16;5035696;28;20498;-67
2022/04/01 02:17:37;;;;;;;4.97;3.27;;;;;;;-142.75;100.00;78151.28;5034615;28;20026;-67
2022/04/01 02:20:10;;;;;;;5.13;2.27;;;;;;;-142.75;100.00;78159.16;5016584;28;20053;-67
2022/04/01 02:22:38;;;;;;;4.53;3.00;;;;;;;-142.75;100.00;78157.19;5034950;28;20021;-66
2022/04/01 02:25:07;;;;;;;4.63;2.70;;;;;;;-142.75;100.00;78153.25;5034875;28;20025;-66
2022/04/01 02:27:33;;;;;;;3.33;2.27;;;;;;;-142.75;100.00;78163.09;5034632;28;20017;-67
2022/04/01 02:29:59;;;;;;;4.50;2.93;;;;;;;-142.75;100.00;78174.91;5034460;28;20025;-67
2022/04/01 02:32:25;;;;;;;3.47;2.53;;;;;;;-142.75;100.00;78172.94;5016615;28;20122;-66
2022/04/01 02:34:50;;;;;;;4.07;2.55;;;;;;;-142.75;100.00;78165.06;5034692;28;20025;-66
2022/04/01 02:37:19;;;;;;;4.68;2.88;;;;;;;-142.75;100.00;78159.16;5034339;28;20096;-66
2022/04/01 02:39:44;;;;;;;5.57;3.10;;;;;;;-142.75;100.00;78165.06;5034359;28;20021;-67
2022/04/01 02:42:09;;;;;;;6.03;2.85;;;;;;;-142.75;100.00;78163.09;5034573;28;20029;-67
2022/04/01 02:44:35;;;;;;;3.42;2.33;;;;;;;-142.75;100.00;78180.81;5016823;28;20049;-67
2022/04/01 02:47:01;;;;;;;5.63;2.78;;;;;;;-142.75;100.00;78172.94;5034178;28;20036;-67
2022/04/01 02:49:26;;;;;;;4.90;2.92;;;;;;;-142.75;100.00;78170.97;5034174;28;20021;-67
2022/04/01 02:51:53;;;;;;;5.25;3.10;;;;;;;-142.75;100.00;78169.00;5034439;28;20025;-67
2022/04/01 02:54:20;;;;;;;4.80;2.90;;;;;;;-142.75;100.00;78176.88;5034263;28;20099;-66
2022/04/01 02:56:46;;;;;;;5.33;2.63;;;;;;;-142.75;100.00;78184.78;5033597;28;20032;-67
2022/04/01 02:59:11;;;;;;;4.15;2.80;;;;;;;-142.75;100.00;78188.72;5033493;28;20025;-67
2022/04/01 03:01:40;;;;;;;3.42;2.30;;;;;;;-142.75;100.00;78188.72;5033816;28;20121;-66
2022/04/01 03:04:09;;;;;;;4.57;2.90;;;;;;;-142.75;100.00;78180.81;5033884;28;20025;-67
2022/04/01 03:06:35;;;;;;;3.33;2.13;;;;;;;-142.75;100.00;78178.84;5015917;28;20013;-67
2022/04/01 03:09:00;;;;;;;3.77;2.67;;;;;;;-142.75;100.00;78194.63;5033940;28;20049;-67
2022/04/01 03:11:26;;;;;;;3.72;2.63;;;;;;;-142.75;100.00;78180.81;5033556;28;20021;-67
2022/04/01 03:13:51;;;;;;;4.30;2.75;;;;;;;-142.75;100.00;78194.63;5033878;28;20032;-67
2022/04/01 03:16:17;;;;;;;4.18;2.70;;;;;;;-142.75;100.00;78196.59;5033654;28;20538;-67
2022/04/01 03:18:43;;;;;;;3.88;2.40;;;;;;;-142.75;100.00;78196.59;5033555;28;20021;-67
2022/04/01 03:21:09;;;;;;;5.78;2.78;;;;;;;-142.75;100.00;78198.56;5033798;28;20030;-66
2022/04/01 03:23:38;;;;;;;4.27;2.63;;;;;;;-142.75;100.00;78192.66;5033944;28;20048;-67
2022/04/01 03:26:03;;;;;;;5.03;3.20;;;;;;;-142.75;100.00;78206.44;5033519;28;20104;-67
2022/04/01 03:28:28;;;;;;;4.78;2.85;;;;;;;-142.75;100.00;78200.53;5033393;28;20021;-67
2022/04/01 03:30:54;;;;;;;6.55;2.78;;;;;;;-142.75;100.00;78204.47;5033208;28;20029;-67
2022/04/01 03:33:19;;;;;;;3.70;2.75;;;;;;;-142.75;100.00;78200.53;5033543;28;20021;-67
2022/04/01 03:35:46;;;;;;;5.20;3.15;;;;;;;-142.75;100.00;78208.41;5033172;28;20490;-67
2022/04/01 03:38:12;;;;;;;6.63;3.23;;;;;;;-142.75;100.00;78204.47;5032818;28;20034;-67
2022/04/01 03:40:40;;;;;;;4.30;2.78;;;;;;;-142.75;100.00;78212.34;5033689;28;20511;-66
2022/04/01 03:43:05;;;;;;;4.33;2.50;;;;;;;-142.75;100.00;78204.47;5015307;28;20441;-67
2022/04/01 03:45:31;;;;;;;5.15;2.83;;;;;;;-142.75;100.00;78220.22;5033357;28;20043;-67
2022/04/01 03:48:03;;;;;;;4.78;2.90;;;;;;;-142.75;100.00;78222.19;5033024;28;20030;-67
2022/04/01 03:50:32;;;;;;;3.93;2.40;;;;;;;-142.75;100.00;78230.06;5015288;28;20565;-67
2022/04/01 03:53:08;;;;;;;6.13;3.30;;;;;;;-142.75;100.00;78220.22;5032710;28;20044;-67
2022/04/01 03:55:38;;;;;;;6.00;3.47;;;;;;;-142.75;100.00;78212.34;5032916;28;20025;-67
2022/04/01 03:58:12;;;;;;;5.00;3.27;;;;;;;-142.75;100.00;78224.16;5032266;28;20060;-67
2022/04/01 04:00:40;;;;;;;7.27;3.63;;;;;;;-142.75;100.00;78214.31;5031748;28;20128;-67
2022/04/01 04:03:08;;;;;;;4.77;3.17;;;;;;;-142.75;100.00;78220.22;5033307;28;20030;-67
2022/04/01 04:05:37;;;;;;;4.37;2.43;;;;;;;-142.75;100.00;78226.13;5009472;28;20034;-66
2022/04/01 04:08:04;;;;;;;6.23;3.27;;;;;;;-142.75;100.00;78232.03;5012355;28;20025;-67
2022/04/01 04:10:32;;;;;;;5.40;3.10;;;;;;;-142.75;100.00;78220.22;5013052;28;20017;-67
2022/04/01 04:12:58;;;;;;;8.20;3.57;;;;;;;-142.75;100.00;78226.13;5013081;28;20084;-66
2022/04/01 04:15:28;;;;;;;4.28;2.67;;;;;;;-142.75;100.00;78228.09;5012838;28;20495;-67
2022/04/01 04:18:01;;;;;;;6.47;3.10;;;;;;;-142.75;100.00;78228.09;5012666;28;20553;-67
2022/04/01 04:20:34;;;;;;;4.50;2.63;;;;;;;-142.75;100.00;78234.00;5013094;28;20734;-66
2022/04/01 04:23:21;;;;;;;4.47;2.97;;;;;;;-142.75;100.00;78232.03;5012300;28;20026;-66
2022/04/01 04:26:00;;;;;;;3.72;2.35;;;;;;;-142.75;100.00;78247.78;4994361;28;20033;-65
2022/04/01 04:28:26;;;;;;;5.03;3.23;;;;;;;-142.75;100.00;78251.72;5012697;28;20030;-66
2022/04/01 04:31:02;;;;;;;5.20;3.27;;;;;;;-142.75;100.00;78247.78;5012579;28;20092;-66
2022/04/01 04:33:31;;;;;;;6.40;3.73;;;;;;;-142.75;100.00;78243.84;5012976;28;20026;-65
2022/04/01 04:36:04;;;;;;;5.23;3.13;;;;;;;-142.75;100.00;78237.94;5012674;28;20030;-66
2022/04/01 04:38:40;;;;;;;3.77;1.97;;;;;;;-142.75;100.00;78245.81;5012368;28;20037;-66
2022/04/01 04:41:09;;;;;;;6.03;3.03;;;;;;;-142.75;100.00;78247.78;5011881;28;20104;-66
2022/04/01 04:43:38;;;;;;;9.67;3.80;;;;;;;-142.75;100.00;78253.69;5012054;28;20038;-65
2022/04/01 04:46:05;;;;;;;4.43;3.10;;;;;;;-142.75;100.00;78251.72;5012239;28;20029;-66
2022/04/01 04:48:32;;;;;;;6.03;2.73;;;;;;;-142.75;100.00;78255.66;5014511;28;20108;-66
2022/04/01 04:50:59;;;;;;;6.90;2.73;;;;;;;-142.75;100.00;78251.72;5032024;28;20063;-67
2022/04/01 04:53:27;;;;;;;6.53;2.90;;;;;;;-142.75;100.00;78259.59;5031807;28;20029;-66
2022/04/01 04:55:53;;;;;;;6.67;3.60;;;;;;;-142.75;100.00;78259.59;5031826;28;20049;-67
2022/04/01 04:58:21;;;;;;;5.50;3.28;;;;;;;-142.75;100.00;78255.66;5031777;28;20025;-66
2022/04/01 05:00:54;;;;;;;5.83;3.37;;;;;;;-142.75;100.00;78275.34;5031718;28;20026;-66
2022/04/01 05:03:26;;;;;;;3.97;2.70;;;;;;;-142.75;100.00;78267.47;5031597;28;20021;-67
2022/04/01 05:05:56;;;;;;;6.00;3.20;;;;;;;-142.75;100.00;78267.47;5031632;28;20025;-66
2022/04/01 05:08:50;;;;;;;5.43;2.50;;;;;;;-142.75;100.00;78271.41;5031409;28;20021;-66
2022/04/01 05:11:34;;;;;;;4.33;2.70;;;;;;;-142.75;100.00;78275.34;5031454;28;20056;-67
2022/04/01 05:14:02;;;;;;;4.50;2.80;;;;;;;-142.75;100.00;78283.22;5031642;28;20083;-67
2022/04/01 05:16:57;;;;;;;4.57;2.43;;;;;;;-142.75;100.00;78283.22;5031610;28;20064;-67
2022/04/01 05:19:30;;;;;;;6.53;3.30;;;;;;;-142.75;100.00;78293.06;5031506;28;20029;-67
2022/04/01 05:22:01;;;;;;;6.00;2.80;;;;;;;-142.75;100.00;78299.00;5031514;28;20029;-67
2022/04/01 05:24:39;;;;;;;6.47;2.70;;;;;;;-142.75;100.00;78302.94;5031623;28;20030;-67
2022/04/01 05:27:08;;;;;;;6.53;2.63;;;;;;;-142.75;100.00;78300.97;5044489;22;20050;-67
2022/04/01 05:29:42;;;;;;;5.50;3.00;;;;;;;-142.75;100.00;78304.91;4997020;28;20021;-66
2022/04/01 05:32:10;;;;;;;4.83;3.00;;;;;;;-142.75;100.00;78312.78;5018316;28;20029;-66
2022/04/01 05:34:45;;;;;;;5.20;2.47;;;;;;;-142.75;100.00;78310.81;5023174;28;20080;-66
2022/04/01 05:37:11;;;;;;;6.47;2.97;;;;;;;-142.75;100.00;78314.75;5010663;28;20029;-66
2022/04/01 05:39:38;;;;;;;5.93;3.33;;;;;;;-142.75;100.00;78316.72;5010372;28;20029;-67
2022/04/01 05:42:08;;;;;;;5.63;2.73;;;;;;;-142.75;100.00;78316.72;5009916;28;20511;-67
2022/04/01 05:44:35;;;;;;;3.90;2.17;;;;;;;-142.75;100.00;78318.69;5012861;28;20372;-66
2022/04/01 05:47:02;;;;;;;6.53;3.13;;;;;;;-142.75;100.00;78314.75;5030210;28;20032;-67
2022/04/01 05:49:28;;;;;;;4.80;2.33;;;;;;;-142.75;100.00;78324.59;5012177;28;20055;-66
2022/04/01 05:51:55;;;;;;;5.80;2.75;;;;;;;-142.75;100.00;78320.66;5030209;28;20021;-66
2022/04/01 05:54:23;;;;;;;3.50;2.20;;;;;;;-142.75;100.00;78328.53;5013374;28;20028;-66
2022/04/01 05:56:50;;;;;;;4.37;2.27;;;;;;;-142.75;100.00;78340.34;5012338;28;20553;-67
2022/04/01 05:59:17;;;;;;;4.60;2.50;;;;;;;-142.75;100.00;78346.25;5033528;28;20496;-67
2022/04/01 06:01:48;;;;;;;3.80;2.30;;;;;;;-142.75;100.00;78342.31;5014466;28;20029;-65
2022/04/01 06:04:47;;;;;;;6.40;2.30;;;;;;;-142.75;100.00;78340.34;5013914;28;20502;-66
2022/04/01 06:07:36;;;;;;;4.43;2.27;;;;;;;-142.75;100.00;78332.47;5013752;28;20053;-66
2022/04/01 06:10:07;;;;;;;5.77;2.33;;;;;;;-142.75;100.00;78334.44;5013481;28;20036;-66
2022/04/01 06:12:33;;;;;;;3.27;1.97;;;;;;;-142.75;100.00;78348.22;4996264;28;20022;-66
2022/04/01 06:15:08;;;;;;;4.13;2.27;;;;;;;-142.75;100.00;78344.28;4996111;28;20038;-66
2022/04/01 06:17:51;;;;;;;3.87;2.13;;;;;;;-142.75;100.00;78334.44;5013494;28;20273;-67
2022/04/01 06:20:20;;;;;;;5.10;2.00;;;;;;;-142.75;100.00;78350.19;5013647;28;20412;-68
2022/04/01 06:22:56;;;;;;;6.13;2.10;;;;;;;-142.75;100.00;78354.13;4995735;28;20038;-66
2022/04/01 06:25:29;;;;;;;4.50;1.98;;;;;;;-142.75;100.00;78350.19;5013602;28;20125;-66
2022/04/01 06:28:08;;;;;;;4.10;2.10;;;;;;;-142.75;100.00;78352.16;5013009;28;20029;-65
2022/04/01 06:30:37;;;;;;;4.77;2.23;;;;;;;-142.75;100.00;78365.94;5032376;28;20029;-66
2022/04/01 06:33:39;;;;;;;4.07;2.27;;;;;;;-142.75;100.00;78352.16;5015375;28;20032;-66
2022/04/01 06:36:06;;;;;;;3.87;1.90;;;;;;;-142.75;100.00;78350.19;5032940;28;20037;-67
2022/04/01 06:38:38;;;;;;;3.67;2.20;;;;;;;-142.75;100.00;78352.16;5014882;28;20083;-66
2022/04/01 06:41:09;;;;;;;4.27;2.17;;;;;;;-142.75;100.00;78348.22;5032977;28;20025;-65
2022/04/01 06:43:35;;;;;;;6.47;1.93;;;;;;;-142.75;100.00;78358.06;5032728;28;20025;-66
2022/04/01 06:46:01;;;;;;;;;;;;;;;-142.75;100.00;78365.94;5033290;28;20075;-67
2022/04/01 06:48:26;;;;;;;2.60;1.43;;;;;;;-142.75;100.00;78373.81;5014624;28;19917;-66
2022/04/01 06:50:54;;;;;;;6.00;2.00;;;;;;;-142.75;100.00;78377.75;5032656;28;20036;-66
2022/04/01 06:53:20;;;;;;;4.17;2.03;;;;;;;-142.75;100.00;78362.00;5032634;28;20096;-66
2022/04/01 06:55:47;;;;;;;4.47;1.92;;;;;;;-142.75;100.00;78338.38;5032655;28;20113;-65
2022/04/01 06:58:13;;;;;;;3.53;1.50;;;;;;;-142.75;100.00;78316.72;5032322;28;20048;-65
2022/04/01 07:00:40;;;;;;;4.72;1.85;;;;;;;-142.75;100.00;78302.94;5032461;28;20499;-66
2022/04/01 07:03:06;;;;;;;6.33;1.87;;;;;;;-142.75;100.00;78306.88;5032436;28;20026;-66
2022/04/01 07:05:34;;;;;;;4.33;2.00;;;;;;;-142.75;100.00;78299.00;5031367;28;20083;-66
2022/04/01 07:08:00;;;;;;;2.40;1.27;;;;;;;-142.75;100.00;78299.00;5032021;28;20037;-66
2022/04/01 07:10:26;;;;;;;2.88;1.90;;;;;;;-142.75;100.00;78291.09;5030545;28;20167;-66
2022/04/01 07:12:52;;;;;;;3.60;1.50;;;;;;;-142.75;100.00;78263.53;5031424;28;20108;-65
2022/04/01 07:15:17;;;;;;;3.60;1.70;;;;;;;-142.75;100.00;78245.81;5031499;28;20025;-65
2022/04/01 07:17:42;;;;;;;3.85;1.52;;;;;;;-142.75;100.00;78208.41;5024876;28;20022;-66
2022/04/01 07:20:08;;;;;;;5.38;1.63;;;;;;;-142.75;100.00;78161.13;5011324;28;20037;-65
2022/04/01 07:22:36;;;;;;;3.80;1.80;;;;;;;-142.75;100.00;78137.50;5016965;28;20056;-66
2022/04/01 07:25:01;;;;;;;5.63;1.60;;;;;;;-142.75;100.00;78109.94;4992992;28;20506;-66
2022/04/01 07:27:29;;;;;;;1.80;1.05;;;;;;;-142.75;100.00;78145.38;5011064;28;20021;-66
2022/04/01 07:29:54;;;;;;;2.60;1.33;;;;;;;-142.75;100.00;78153.25;4992492;28;20125;-65
2022/04/01 07:32:34;;;;;;;3.35;1.55;;;;;;;-142.75;100.00;78161.13;5010983;28;20153;-65
2022/04/01 07:35:01;;;;;;;5.13;1.57;;;;;;;-142.75;100.00;78192.66;5011299;28;20935;-66
2022/04/01 07:37:28;;;;;;;9.57;1.73;;;;;;;-142.75;100.00;78182.81;5010938;28;20026;-66
2022/04/01 07:39:54;;;;;;;4.93;1.57;;;;;;;-142.75;100.00;78190.69;5010917;28;20030;-66
2022/04/01 07:42:21;;;;;;;3.60;1.80;;;;;;;-142.75;100.00;78165.06;5010794;28;20387;-65
2022/04/01 07:44:49;;;;;;;6.13;1.80;;;;;;;-142.75;100.00;78125.69;5011137;28;20399;-66
2022/04/01 07:47:15;;;;;;;3.57;1.40;;;;;;;-142.75;100.00;78121.75;5011129;28;20026;-67
2022/04/01 07:49:41;;;;;;;3.42;1.33;;;;;;;-142.75;100.00;78115.84;5010794;28;20064;-67
2022/04/01 07:52:08;;;;;;;2.60;1.05;;;;;;;-142.75;100.00;78139.47;4993145;28;20057;-65
2022/04/01 07:54:35;;;;;;;1.80;1.10;;;;;;;-142.75;100.00;78155.22;5011851;28;20026;-67
2022/04/01 07:57:01;;;;;;;2.93;1.57;;;;;;;-142.75;100.00;78167.03;4994001;28;20030;-66
2022/04/01 07:59:26;;;;;;;3.87;1.10;;;;;;;-142.75;100.00;78184.78;4993735;28;20034;-66
2022/04/01 08:01:52;;;;;;;1.50;0.70;;;;;;;-142.75;100.00;78188.72;4994069;28;20029;-66
2022/04/01 08:04:17;;;;;;;2.60;0.73;;;;;;;-142.75;100.00;78204.47;5011621;28;20080;-66
2022/04/01 08:06:43;;;;;;;4.22;0.88;;;;;;;-142.75;100.00;78208.41;5011548;28;20128;-67
2022/04/01 08:09:08;;;;;;;2.33;0.95;;;;;;;-142.75;100.00;78216.28;5011377;28;20083;-66
2022/04/01 08:11:33;;;;;;;1.85;0.68;;;;;;;-142.75;100.00;78212.34;5011274;28;20484;-66
2022/04/01 08:13:59;;;;;;;2.63;0.90;;;;;;;-142.75;100.00;78220.22;5011554;28;20084;-66
2022/04/01 08:16:25;;;;;;;1.77;0.80;;;;;;;-142.75;100.00;78202.50;5011122;28;20057;-64
2022/04/01 08:18:50;;;;;;;2.80;1.02;;;;;;;-142.75;100.00;78200.53;5011061;28;20541;-67
2022/04/01 08:21:16;;;;;;;6.47;1.20;;;;;;;-142.75;100.00;78182.81;5011425;28;20270;-67
2022/04/01 08:23:42;;;;;;;3.60;0.82;;;;;;;-142.75;100.00;78190.69;5011372;28;20021;-66
2022/04/01 08:26:07;;;;;;;3.63;1.23;;;;;;;-142.75;100.00;78178.84;5011313;28;20488;-66
2022/04/01 08:28:34;;;;;;;2.00;0.82;;;;;;;-142.75;100.00;78165.06;5010993;28;20373;-67
2022/04/01 08:31:00;;;;;;;3.30;1.10;;;;;;;-142.75;100.00;78169.00;5011180;28;20030;-67
2022/04/01 08:33:26;;;;;;;3.03;1.00;;;;;;;-142.75;100.00;78157.19;4993586;28;20161;-65
2022/04/01 08:35:51;;;;;;;1.45;0.90;;;;;;;-142.75;100.00;78157.19;5011144;28;20101;-66
2022/04/01 08:38:16;;;;;;;1.88;1.00;;;;;;;-142.75;100.00;78145.38;4993176;28;20052;-67
2022/04/01 08:40:42;;;;;;;2.13;1.30;;;;;;;-142.75;100.00;78129.63;5011226;28;20454;-66
2022/04/01 08:43:07;;;;;;;3.88;0.85;;;;;;;-142.75;100.00;78147.34;5010944;28;20041;-67
2022/04/01 08:45:35;;;;;;;4.53;1.10;;;;;;;-142.75;100.00;78135.53;5011019;28;20097;-67
2022/04/01 08:48:03;;;;;;;2.33;1.00;;;;;;;-142.75;100.00;78133.56;5010587;28;20148;-67
2022/04/01 08:50:28;;;;;;;4.40;1.20;;;;;;;-142.75;100.00;78129.63;5010912;28;20030;-67
2022/04/01 08:52:53;;;;;;;4.22;1.13;;;;;;;-142.75;100.00;78135.53;5010650;28;20028;-67
2022/04/01 08:55:19;;;;;;;2.97;1.15;;;;;;;-142.75;100.00;78127.66;5011001;28;20137;-67
2022/04/01 08:57:45;;;;;;;2.08;1.00;;;;;;;-142.75;100.00;78145.38;4993088;28;20072;-66
2022/04/01 09:00:16;;;;;;;2.15;1.00;;;;;;;-142.75;100.00;78131.59;5010688;28;20025;-67
2022/04/01 09:02:43;;;;;;;2.43;0.90;;;;;;;-142.75;100.00;78113.88;4992755;28;20038;-67
2022/04/01 09:05:08;;;;;;;2.03;1.00;;;;;;;-142.75;100.00;78115.84;5010931;28;20061;-65
2022/04/01 09:07:34;;;;;;;2.25;1.05;;;;;;;-142.75;100.00;78098.13;5011352;28;20095;-67
2022/04/01 09:10:05;;;;;;;2.15;0.93;;;;;;;-142.75;100.00;78088.28;5011099;28;20029;-67
2022/04/01 09:12:31;;;;;;;1.73;1.00;;;;;;;-142.75;100.00;78080.41;5010650;28;20064;-67
2022/04/01 09:14:58;;;;;;;1.58;0.90;;;;;;;-142.75;100.00;78064.66;5010904;28;20057;-67
2022/04/01 09:17:43;;;;;;;3.33;1.07;;;;;;;-142.75;100.00;78046.91;5010677;28;20029;-67
2022/04/01 09:20:09;;;;;;;3.60;0.83;;;;;;;-142.75;100.00;78050.84;5015183;28;20029;-66
2022/04/01 09:22:37;;;;;;;1.57;1.00;;;;;;;-142.75;100.00;78011.47;5015916;28;20026;-66
2022/04/01 09:25:06;;;;;;;3.07;1.13;;;;;;;-142.75;100.00;78003.59;4993115;28;20026;-66
2022/04/01 09:27:40;;;;;;;4.53;1.40;;;;;;;-142.75;100.00;78007.53;5010620;28;20022;-66
2022/04/01 09:30:07;;;;;;;4.47;1.43;;;;;;;-142.75;100.00;77970.13;5014361;28;20131;-67
2022/04/01 09:32:42;;;;;;;2.40;1.10;;;;;;;-142.75;100.00;77932.72;5014531;28;20018;-67
2022/04/01 09:35:10;;;;;;;2.20;0.90;;;;;;;-142.75;100.00;77966.19;5015787;28;20049;-66
2022/04/01 09:37:47;;;;;;;1.80;1.00;;;;;;;-142.75;100.00;77952.41;5034134;28;20057;-67
2022/04/01 09:40:14;;;;;;;;;;;;;;;-142.75;100.00;77946.50;5020781;28;20040;-67
2022/04/01 09:42:46;;;;;;;2.47;1.00;;;;;;;-142.75;100.00;77972.09;4996080;28;19931;-67
2022/04/01 09:45:18;;;;;;;4.37;1.00;;;;;;;-142.75;100.00;77991.78;5021424;28;20476;-67
2022/04/01 09:47:45;;;;;;;1.87;1.00;;;;;;;-142.75;100.00;78009.50;5015916;28;20487;-66
2022/04/01 09:50:13;;;;;;;2.37;1.10;;;;;;;-142.75;100.00;77983.91;5018004;28;20041;-67
2022/04/01 09:52:40;;;;;;;1.60;1.00;;;;;;;-142.75;100.00;77981.94;5013984;28;20022;-67
2022/04/01 09:55:07;;;;;;;4.43;1.00;;;;;;;-142.75;100.00;77983.91;4996374;28;20034;-65
2022/04/01 09:57:33;;;;;;;1.60;0.80;;;;;;;-142.75;100.00;77979.97;5020526;28;20483;-67
2022/04/01 09:59:59;;;;;;;3.97;1.45;;;;;;;-142.75;100.00;77960.28;5016413;28;20033;-65
2022/04/01 10:02:24;;;;;;;1.73;1.00;;;;;;;-142.75;100.00;77901.19;5000132;28;20054;-67
2022/04/01 10:04:50;;;;;;;2.00;1.13;;;;;;;-142.75;100.00;77871.66;5034163;28;20028;-66
2022/04/01 10:07:15;;;;;;;2.65;1.23;;;;;;;-142.75;100.00;77873.63;4997884;28;20276;-67
2022/04/01 10:09:43;;;;;;;1.98;1.00;;;;;;;-142.75;100.00;77928.78;5013540;28;20029;-67
2022/04/01 10:12:13;;;;;;;2.23;0.90;;;;;;;-142.75;100.00;77952.41;5033122;28;20471;-67
2022/04/01 10:14:40;;;;;;;1.60;0.93;;;;;;;-142.75;100.00;77960.28;5033354;28;20048;-67
2022/04/01 10:17:09;;;;;;;5.03;1.47;;;;;;;-142.75;100.00;77958.31;5033222;28;20454;-67
2022/04/01 10:19:38;;;;;;;3.90;1.13;;;;;;;-142.75;100.00;77901.19;5031397;28;20087;-67
2022/04/01 10:22:05;;;;;;;3.10;0.87;;;;;;;-142.75;100.00;77877.56;5013811;28;20044;-67
2022/04/01 10:24:30;;;;;;;;;;;;;;;-142.75;100.00;77842.13;5005753;28;20088;-67
2022/04/01 10:27:21;;;;;;;4.60;1.00;;;;;;;-142.75;100.00;77889.38;4995546;28;20008;-67
2022/04/01 10:29:47;;;;;;;2.47;1.30;;;;;;;-142.75;100.00;77820.47;5013161;28;20017;-66
2022/04/01 10:32:24;;;;;;;;;;;;;;;-142.75;100.00;77802.75;5013900;28;20143;-67
2022/04/01 10:34:53;;;;;;;2.25;0.80;;;;;;;-142.75;100.00;77859.84;5013379;28;19971;-67
2022/04/01 10:37:20;;;;;;;3.03;1.20;;;;;;;-142.75;100.00;77893.31;5031146;28;20028;-67
2022/04/01 10:40:00;;;;;;;2.30;0.83;;;;;;;-142.75;100.00;77920.91;5014923;28;20017;-67
2022/04/01 10:42:31;;;;;;;4.77;1.17;;;;;;;-142.75;100.00;77936.66;5008817;28;20021;-67
2022/04/01 10:45:00;;;;;;;2.07;0.93;;;;;;;-142.75;100.00;77968.16;5014767;28;20156;-67
2022/04/01 10:53:34;;;;;;;3.80;1.20;;;;;;;-142.75;100.00;78027.22;5015458;28;20076;-66
2022/04/01 10:56:56;;;;;;;2.77;0.60;;;;;;;-142.75;100.00;78015.41;5032465;28;20033;-67
2022/04/01 10:59:24;;;;;;;2.77;0.87;;;;;;;-142.75;100.00;77970.13;4932717;29;20044;-67
2022/04/01 11:01:49;;;;;;;4.03;1.13;;;;;;;-142.75;100.00;77968.16;4932823;29;20851;-67
2022/04/01 11:04:17;;;;;;;2.77;1.10;;;;;;;-142.75;100.00;77983.91;4960063;28;20038;-66
2022/04/01 11:06:53;;;;;;;2.10;1.20;;;;;;;-142.75;100.00;77997.69;4994903;28;20037;-67
2022/04/01 11:09:36;;;;;;;3.53;1.40;;;;;;;-142.75;100.00;78005.56;5030936;28;20033;-66
2022/04/01 11:12:21;;;;;;;4.93;1.27;;;;;;;-142.75;100.00;78003.59;5032244;28;20087;-66
2022/04/01 11:15:20;;;;;;;2.07;1.00;;;;;;;-142.75;100.00;78023.28;5025157;28;20057;-67
2022/04/01 11:17:51;;;;;;;2.67;1.17;;;;;;;-142.75;100.00;77999.66;5012590;28;20523;-67
2022/04/01 11:20:22;;;;;;;2.70;0.90;;;;;;;-142.75;100.00;77956.34;5012509;28;20040;-67
2022/04/01 11:22:53;;;;;;;1.50;0.93;;;;;;;-142.75;100.00;77985.88;5031757;28;20021;-67
2022/04/01 11:25:21;;;;;;;2.67;1.27;;;;;;;-142.75;100.00;78013.44;5032205;28;20075;-67
2022/04/01 11:27:55;;;;;;;2.73;0.90;;;;;;;-142.75;100.00;77972.09;5044910;22;20560;-68